sensor_id;sensor_type;location;lat;lon;timestamp;P1;durP1;ratioP1;P2;durP2;ratioP2
8050;SDS011;4068;42.158;24.732;2022-07-04T00:02:17;5.40;;;3.63;;
8050;SDS011;4068;42.158;24.732;2022-07-04T00:04:43;7.28;;;3.55;;
8050;SDS011;4068;42.158;24.732;2022-07-04T00:07:08;12.25;;;3.78;;
8050;SDS011;4068;42.158;24.732;2022-07-04T00:09:34;4.85;;;3.40;;
8050;SDS011;4068;42.158;24.732;2022-07-04T00:11:59;4.68;;;3.55;;
8050;SDS011;4068;42.158;24.732;2022-07-04T00:14:25;7.78;;;4.28;;
8050;SDS011;4068;42.158;24.732;2022-07-04T00:16:50;9.05;;;3.72;;
8050;SDS011;4068;42.158;24.732;2022-07-04T00:19:15;8.43;;;3.50;;
8050;SDS011;4068;42.158;24.732;2022-07-04T00:21:41;8.63;;;3.70;;
8050;SDS011;4068;42.158;24.732;2022-07-04T00:24:06;10.20;;;3.80;;
8050;SDS011;4068;42.158;24.732;2022-07-04T00:26:32;6.20;;;3.83;;
8050;SDS011;4068;42.158;24.732;2022-07-04T00:28:57;7.60;;;3.80;;
8050;SDS011;4068;42.158;24.732;2022-07-04T00:31:23;5.95;;;3.65;;
8050;SDS011;4068;42.158;24.732;2022-07-04T00:33:48;11.55;;;3.80;;
8050;SDS011;4068;42.158;24.732;2022-07-04T00:36:13;5.43;;;3.30;;
8050;SDS011;4068;42.158;24.732;2022-07-04T00:38:39;3.55;;;3.10;;
8050;SDS011;4068;42.158;24.732;2022-07-04T00:41:04;6.40;;;3.80;;
8050;SDS011;4068;42.158;24.732;2022-07-04T00:43:30;6.20;;;3.20;;
8050;SDS011;4068;42.158;24.732;2022-07-04T00:45:56;6.47;;;3.63;;
8050;SDS011;4068;42.158;24.732;2022-07-04T00:48:21;5.13;;;3.60;;
8050;SDS011;4068;42.158;24.732;2022-07-04T00:50:47;8.50;;;3.70;;
8050;SDS011;4068;42.158;24.732;2022-07-04T00:53:13;7.93;;;3.97;;
8050;SDS011;4068;42.158;24.732;2022-07-04T00:55:40;5.10;;;3.50;;
8050;SDS011;4068;42.158;24.732;2022-07-04T00:58:06;6.05;;;3.47;;
8050;SDS011;4068;42.158;24.732;2022-07-04T01:00:32;4.38;;;3.30;;
8050;SDS011;4068;42.158;24.732;2022-07-04T01:02:57;5.68;;;3.80;;
8050;SDS011;4068;42.158;24.732;2022-07-04T01:05:23;9.77;;;3.63;;
8050;SDS011;4068;42.158;24.732;2022-07-04T01:07:50;6.72;;;3.55;;
8050;SDS011;4068;42.158;24.732;2022-07-04T01:10:15;9.98;;;3.47;;
8050;SDS011;4068;42.158;24.732;2022-07-04T01:12:41;8.90;;;3.70;;
8050;SDS011;4068;42.158;24.732;2022-07-04T01:15:07;7.03;;;3.85;;
8050;SDS011;4068;42.158;24.732;2022-07-04T01:17:33;7.65;;;4.15;;
8050;SDS011;4068;42.158;24.732;2022-07-04T01:19:59;11.43;;;3.83;;
8050;SDS011;4068;42.158;24.732;2022-07-04T01:22:24;5.35;;;4.00;;
8050;SDS011;4068;42.158;24.732;2022-07-04T01:24:50;9.40;;;4.10;;
8050;SDS011;4068;42.158;24.732;2022-07-04T01:27:15;4.28;;;3.88;;
8050;SDS011;4068;42.158;24.732;2022-07-04T01:29:42;5.68;;;4.25;;
8050;SDS011;4068;42.158;24.732;2022-07-04T01:32:08;6.65;;;4.07;;
8050;SDS011;4068;42.158;24.732;2022-07-04T01:34:34;4.43;;;3.83;;
8050;SDS011;4068;42.158;24.732;2022-07-04T01:37:00;10.82;;;4.22;;
8050;SDS011;4068;42.158;24.732;2022-07-04T01:39:27;7.68;;;3.63;;
8050;SDS011;4068;42.158;24.732;2022-07-04T01:41:53;6.68;;;3.72;;
8050;SDS011;4068;42.158;24.732;2022-07-04T01:44:19;6.97;;;3.70;;
8050;SDS011;4068;42.158;24.732;2022-07-04T01:46:44;6.10;;;3.60;;
8050;SDS011;4068;42.158;24.732;2022-07-04T01:49:09;6.03;;;4.30;;
8050;SDS011;4068;42.158;24.732;2022-07-04T01:51:35;6.80;;;4.20;;
8050;SDS011;4068;42.158;24.732;2022-07-04T01:54:00;8.15;;;4.35;;
8050;SDS011;4068;42.158;24.732;2022-07-04T01:56:26;8.60;;;4.00;;
8050;SDS011;4068;42.158;24.732;2022-07-04T01:58:51;7.57;;;4.10;;
8050;SDS011;4068;42.158;24.732;2022-07-04T02:01:17;5.45;;;4.30;;
8050;SDS011;4068;42.158;24.732;2022-07-04T02:03:54;6.47;;;4.38;;
8050;SDS011;4068;42.158;24.732;2022-07-04T02:06:20;8.20;;;4.47;;
8050;SDS011;4068;42.158;24.732;2022-07-04T02:08:45;11.93;;;4.97;;
8050;SDS011;4068;42.158;24.732;2022-07-04T02:11:29;7.03;;;5.10;;
8050;SDS011;4068;42.158;24.732;2022-07-04T02:14:15;7.63;;;4.30;;
8050;SDS011;4068;42.158;24.732;2022-07-04T02:16:40;11.00;;;4.88;;
8050;SDS011;4068;42.158;24.732;2022-07-04T02:19:06;6.78;;;4.40;;
8050;SDS011;4068;42.158;24.732;2022-07-04T02:21:31;8.13;;;5.00;;
8050;SDS011;4068;42.158;24.732;2022-07-04T02:23:57;5.97;;;4.65;;
8050;SDS011;4068;42.158;24.732;2022-07-04T02:26:22;7.50;;;4.40;;
8050;SDS011;4068;42.158;24.732;2022-07-04T02:28:48;4.85;;;4.35;;
8050;SDS011;4068;42.158;24.732;2022-07-04T02:31:13;9.13;;;4.20;;
8050;SDS011;4068;42.158;24.732;2022-07-04T02:33:38;6.28;;;4.28;;
8050;SDS011;4068;42.158;24.732;2022-07-04T02:36:04;9.27;;;4.50;;
8050;SDS011;4068;42.158;24.732;2022-07-04T02:38:30;8.57;;;4.30;;
8050;SDS011;4068;42.158;24.732;2022-07-04T02:40:55;14.60;;;5.53;;
8050;SDS011;4068;42.158;24.732;2022-07-04T02:43:20;9.70;;;5.13;;
8050;SDS011;4068;42.158;24.732;2022-07-04T02:45:46;11.02;;;4.60;;
8050;SDS011;4068;42.158;24.732;2022-07-04T02:48:11;7.22;;;4.53;;
8050;SDS011;4068;42.158;24.732;2022-07-04T02:50:37;12.63;;;4.57;;
8050;SDS011;4068;42.158;24.732;2022-07-04T02:53:02;6.40;;;4.93;;
8050;SDS011;4068;42.158;24.732;2022-07-04T02:55:28;8.60;;;5.55;;
8050;SDS011;4068;42.158;24.732;2022-07-04T02:57:53;6.80;;;4.95;;
8050;SDS011;4068;42.158;24.732;2022-07-04T03:00:18;10.00;;;5.20;;
8050;SDS011;4068;42.158;24.732;2022-07-04T03:02:44;9.13;;;5.40;;
8050;SDS011;4068;42.158;24.732;2022-07-04T03:05:09;14.32;;;5.72;;
8050;SDS011;4068;42.158;24.732;2022-07-04T03:07:35;12.30;;;5.18;;
8050;SDS011;4068;42.158;24.732;2022-07-04T03:10:00;9.68;;;5.53;;
8050;SDS011;4068;42.158;24.732;2022-07-04T03:12:26;8.13;;;5.50;;
8050;SDS011;4068;42.158;24.732;2022-07-04T03:14:51;8.02;;;5.18;;
8050;SDS011;4068;42.158;24.732;2022-07-04T03:17:18;6.90;;;4.78;;
8050;SDS011;4068;42.158;24.732;2022-07-04T03:19:44;11.77;;;5.35;;
8050;SDS011;4068;42.158;24.732;2022-07-04T03:22:09;8.60;;;5.10;;
8050;SDS011;4068;42.158;24.732;2022-07-04T03:24:35;9.23;;;5.03;;
8050;SDS011;4068;42.158;24.732;2022-07-04T03:27:00;12.68;;;5.30;;
8050;SDS011;4068;42.158;24.732;2022-07-04T03:29:26;10.75;;;4.88;;
8050;SDS011;4068;42.158;24.732;2022-07-04T03:31:51;9.10;;;4.40;;
8050;SDS011;4068;42.158;24.732;2022-07-04T03:34:16;7.22;;;4.60;;
8050;SDS011;4068;42.158;24.732;2022-07-04T03:36:42;5.45;;;4.32;;
8050;SDS011;4068;42.158;24.732;2022-07-04T03:39:08;8.65;;;4.85;;
8050;SDS011;4068;42.158;24.732;2022-07-04T03:41:33;9.90;;;5.57;;
8050;SDS011;4068;42.158;24.732;2022-07-04T03:43:58;5.55;;;4.25;;
8050;SDS011;4068;42.158;24.732;2022-07-04T03:46:24;6.90;;;4.15;;
8050;SDS011;4068;42.158;24.732;2022-07-04T03:48:49;8.25;;;4.25;;
8050;SDS011;4068;42.158;24.732;2022-07-04T03:51:15;12.27;;;4.47;;
8050;SDS011;4068;42.158;24.732;2022-07-04T03:53:41;11.13;;;4.35;;
8050;SDS011;4068;42.158;24.732;2022-07-04T03:56:07;5.97;;;4.07;;
8050;SDS011;4068;42.158;24.732;2022-07-04T03:58:33;6.65;;;4.57;;
8050;SDS011;4068;42.158;24.732;2022-07-04T04:00:59;6.53;;;3.83;;
8050;SDS011;4068;42.158;24.732;2022-07-04T04:03:25;7.85;;;4.00;;
8050;SDS011;4068;42.158;24.732;2022-07-04T04:06:09;8.32;;;4.07;;
8050;SDS011;4068;42.158;24.732;2022-07-04T04:08:34;7.57;;;3.97;;
8050;SDS011;4068;42.158;24.732;2022-07-04T04:11:00;10.05;;;4.35;;
8050;SDS011;4068;42.158;24.732;2022-07-04T04:13:25;9.73;;;4.68;;
8050;SDS011;4068;42.158;24.732;2022-07-04T04:15:51;8.23;;;5.03;;
8050;SDS011;4068;42.158;24.732;2022-07-04T04:18:16;4.63;;;3.92;;
8050;SDS011;4068;42.158;24.732;2022-07-04T04:20:41;8.55;;;4.53;;
8050;SDS011;4068;42.158;24.732;2022-07-04T04:23:07;4.75;;;4.22;;
8050;SDS011;4068;42.158;24.732;2022-07-04T04:25:32;11.60;;;4.65;;
8050;SDS011;4068;42.158;24.732;2022-07-04T04:27:58;5.50;;;4.70;;
8050;SDS011;4068;42.158;24.732;2022-07-04T04:30:23;5.97;;;4.22;;
8050;SDS011;4068;42.158;24.732;2022-07-04T04:32:48;8.40;;;4.55;;
8050;SDS011;4068;42.158;24.732;2022-07-04T04:35:14;8.43;;;4.47;;
8050;SDS011;4068;42.158;24.732;2022-07-04T04:37:40;10.75;;;5.18;;
8050;SDS011;4068;42.158;24.732;2022-07-04T04:40:06;9.88;;;5.40;;
8050;SDS011;4068;42.158;24.732;2022-07-04T04:42:32;8.70;;;5.13;;
8050;SDS011;4068;42.158;24.732;2022-07-04T04:44:58;5.50;;;4.90;;
8050;SDS011;4068;42.158;24.732;2022-07-04T04:47:23;10.35;;;5.63;;
8050;SDS011;4068;42.158;24.732;2022-07-04T04:49:49;10.80;;;5.40;;
8050;SDS011;4068;42.158;24.732;2022-07-04T04:52:14;10.90;;;4.85;;
8050;SDS011;4068;42.158;24.732;2022-07-04T04:54:40;7.63;;;5.15;;
8050;SDS011;4068;42.158;24.732;2022-07-04T04:57:06;9.50;;;5.25;;
8050;SDS011;4068;42.158;24.732;2022-07-04T04:59:31;7.30;;;4.70;;
8050;SDS011;4068;42.158;24.732;2022-07-04T05:01:57;7.82;;;4.60;;
8050;SDS011;4068;42.158;24.732;2022-07-04T05:04:23;6.28;;;4.53;;
8050;SDS011;4068;42.158;24.732;2022-07-04T05:06:49;9.13;;;4.70;;
8050;SDS011;4068;42.158;24.732;2022-07-04T05:09:15;5.05;;;4.20;;
8050;SDS011;4068;42.158;24.732;2022-07-04T05:11:40;7.03;;;4.30;;
8050;SDS011;4068;42.158;24.732;2022-07-04T05:14:06;6.43;;;4.07;;
8050;SDS011;4068;42.158;24.732;2022-07-04T05:16:31;12.02;;;4.75;;
8050;SDS011;4068;42.158;24.732;2022-07-04T05:18:57;7.32;;;4.28;;
8050;SDS011;4068;42.158;24.732;2022-07-04T05:21:22;5.45;;;4.50;;
8050;SDS011;4068;42.158;24.732;2022-07-04T05:23:51;14.70;;;4.38;;
8050;SDS011;4068;42.158;24.732;2022-07-04T05:26:16;4.43;;;4.03;;
8050;SDS011;4068;42.158;24.732;2022-07-04T05:28:42;11.07;;;4.30;;
8050;SDS011;4068;42.158;24.732;2022-07-04T05:31:07;11.50;;;4.85;;
8050;SDS011;4068;42.158;24.732;2022-07-04T05:33:33;8.13;;;4.65;;
8050;SDS011;4068;42.158;24.732;2022-07-04T05:35:58;10.15;;;5.40;;
8050;SDS011;4068;42.158;24.732;2022-07-04T05:38:24;6.78;;;4.13;;
8050;SDS011;4068;42.158;24.732;2022-07-04T05:40:49;7.22;;;5.03;;
8050;SDS011;4068;42.158;24.732;2022-07-04T05:43:15;7.32;;;4.22;;
8050;SDS011;4068;42.158;24.732;2022-07-04T05:45:40;7.30;;;4.50;;
8050;SDS011;4068;42.158;24.732;2022-07-04T05:48:05;8.40;;;4.72;;
8050;SDS011;4068;42.158;24.732;2022-07-04T05:50:31;6.28;;;4.40;;
8050;SDS011;4068;42.158;24.732;2022-07-04T05:52:56;5.45;;;3.65;;
8050;SDS011;4068;42.158;24.732;2022-07-04T05:55:22;5.72;;;3.80;;
8050;SDS011;4068;42.158;24.732;2022-07-04T05:57:47;6.03;;;4.35;;
8050;SDS011;4068;42.158;24.732;2022-07-04T06:00:13;6.20;;;4.30;;
8050;SDS011;4068;42.158;24.732;2022-07-04T06:02:39;6.15;;;3.80;;
8050;SDS011;4068;42.158;24.732;2022-07-04T06:05:06;5.63;;;3.85;;
8050;SDS011;4068;42.158;24.732;2022-07-04T06:07:32;6.10;;;3.60;;
8050;SDS011;4068;42.158;24.732;2022-07-04T06:09:58;5.65;;;3.65;;
8050;SDS011;4068;42.158;24.732;2022-07-04T06:12:23;5.25;;;3.70;;
8050;SDS011;4068;42.158;24.732;2022-07-04T06:14:48;10.60;;;4.38;;
8050;SDS011;4068;42.158;24.732;2022-07-04T06:17:14;8.85;;;4.22;;
8050;SDS011;4068;42.158;24.732;2022-07-04T06:19:39;9.65;;;4.35;;
8050;SDS011;4068;42.158;24.732;2022-07-04T06:22:05;8.27;;;4.13;;
8050;SDS011;4068;42.158;24.732;2022-07-04T06:24:30;6.00;;;3.45;;
8050;SDS011;4068;42.158;24.732;2022-07-04T06:26:55;5.72;;;3.70;;
8050;SDS011;4068;42.158;24.732;2022-07-04T06:29:21;4.20;;;3.80;;
8050;SDS011;4068;42.158;24.732;2022-07-04T06:31:47;5.38;;;3.53;;
8050;SDS011;4068;42.158;24.732;2022-07-04T06:34:13;5.28;;;3.22;;
8050;SDS011;4068;42.158;24.732;2022-07-04T06:36:57;8.70;;;3.97;;
8050;SDS011;4068;42.158;24.732;2022-07-04T06:39:22;9.20;;;3.70;;
8050;SDS011;4068;42.158;24.732;2022-07-04T06:41:47;5.55;;;3.55;;
8050;SDS011;4068;42.158;24.732;2022-07-04T06:44:13;6.93;;;3.67;;
8050;SDS011;4068;42.158;24.732;2022-07-04T06:46:38;5.75;;;3.45;;
8050;SDS011;4068;42.158;24.732;2022-07-04T06:49:04;7.53;;;3.80;;
8050;SDS011;4068;42.158;24.732;2022-07-04T06:51:29;9.07;;;3.85;;
8050;SDS011;4068;42.158;24.732;2022-07-04T06:53:54;9.98;;;3.53;;
8050;SDS011;4068;42.158;24.732;2022-07-04T06:56:20;7.38;;;4.10;;
8050;SDS011;4068;42.158;24.732;2022-07-04T06:58:45;4.30;;;3.90;;
8050;SDS011;4068;42.158;24.732;2022-07-04T07:01:11;6.22;;;4.03;;
8050;SDS011;4068;42.158;24.732;2022-07-04T07:03:36;7.90;;;3.97;;
8050;SDS011;4068;42.158;24.732;2022-07-04T07:06:02;4.93;;;3.63;;
8050;SDS011;4068;42.158;24.732;2022-07-04T07:08:28;4.97;;;3.50;;
8050;SDS011;4068;42.158;24.732;2022-07-04T07:10:58;3.97;;;3.45;;
8050;SDS011;4068;42.158;24.732;2022-07-04T07:13:38;5.40;;;3.50;;
8050;SDS011;4068;42.158;24.732;2022-07-04T07:16:11;7.28;;;4.43;;
8050;SDS011;4068;42.158;24.732;2022-07-04T07:18:37;6.90;;;3.90;;
8050;SDS011;4068;42.158;24.732;2022-07-04T07:21:02;9.20;;;4.03;;
8050;SDS011;4068;42.158;24.732;2022-07-04T07:23:28;4.82;;;4.00;;
8050;SDS011;4068;42.158;24.732;2022-07-04T07:25:53;6.88;;;3.55;;
8050;SDS011;4068;42.158;24.732;2022-07-04T07:28:19;7.03;;;4.50;;
8050;SDS011;4068;42.158;24.732;2022-07-04T07:30:44;8.02;;;4.95;;
8050;SDS011;4068;42.158;24.732;2022-07-04T07:33:10;6.47;;;4.50;;
8050;SDS011;4068;42.158;24.732;2022-07-04T07:35:36;5.63;;;3.67;;
8050;SDS011;4068;42.158;24.732;2022-07-04T07:38:02;6.75;;;4.60;;
8050;SDS011;4068;42.158;24.732;2022-07-04T07:40:27;8.05;;;4.30;;
8050;SDS011;4068;42.158;24.732;2022-07-04T07:42:53;9.52;;;4.20;;
8050;SDS011;4068;42.158;24.732;2022-07-04T07:45:19;7.57;;;4.18;;
8050;SDS011;4068;42.158;24.732;2022-07-04T07:47:46;7.50;;;4.03;;
8050;SDS011;4068;42.158;24.732;2022-07-04T07:50:11;6.95;;;4.22;;
8050;SDS011;4068;42.158;24.732;2022-07-04T07:52:37;6.78;;;4.38;;
8050;SDS011;4068;42.158;24.732;2022-07-04T07:55:03;9.15;;;4.10;;
8050;SDS011;4068;42.158;24.732;2022-07-04T07:57:29;6.78;;;4.28;;
8050;SDS011;4068;42.158;24.732;2022-07-04T07:59:55;6.05;;;4.18;;
8050;SDS011;4068;42.158;24.732;2022-07-04T08:02:21;10.85;;;4.10;;
8050;SDS011;4068;42.158;24.732;2022-07-04T08:05:05;6.97;;;4.43;;
8050;SDS011;4068;42.158;24.732;2022-07-04T08:07:31;7.13;;;4.00;;
8050;SDS011;4068;42.158;24.732;2022-07-04T08:09:57;3.85;;;3.50;;
8050;SDS011;4068;42.158;24.732;2022-07-04T08:12:22;6.20;;;3.85;;
8050;SDS011;4068;42.158;24.732;2022-07-04T08:14:48;5.85;;;4.00;;
8050;SDS011;4068;42.158;24.732;2022-07-04T08:17:13;6.80;;;4.13;;
8050;SDS011;4068;42.158;24.732;2022-07-04T08:19:38;6.70;;;4.43;;
8050;SDS011;4068;42.158;24.732;2022-07-04T08:22:04;5.25;;;3.83;;
8050;SDS011;4068;42.158;24.732;2022-07-04T08:24:30;6.05;;;4.50;;
8050;SDS011;4068;42.158;24.732;2022-07-04T08:26:55;5.88;;;3.80;;
8050;SDS011;4068;42.158;24.732;2022-07-04T08:29:20;9.05;;;3.83;;
8050;SDS011;4068;42.158;24.732;2022-07-04T08:31:47;8.10;;;4.60;;
8050;SDS011;4068;42.158;24.732;2022-07-04T08:34:13;7.47;;;4.55;;
8050;SDS011;4068;42.158;24.732;2022-07-04T08:36:38;6.53;;;4.25;;
8050;SDS011;4068;42.158;24.732;2022-07-04T08:39:04;7.50;;;3.90;;
8050;SDS011;4068;42.158;24.732;2022-07-04T08:41:34;5.47;;;3.70;;
8050;SDS011;4068;42.158;24.732;2022-07-04T08:44:03;4.22;;;3.70;;
8050;SDS011;4068;42.158;24.732;2022-07-04T08:46:30;8.85;;;3.80;;
8050;SDS011;4068;42.158;24.732;2022-07-04T08:48:57;4.18;;;3.70;;
8050;SDS011;4068;42.158;24.732;2022-07-04T08:51:44;4.82;;;3.40;;
8050;SDS011;4068;42.158;24.732;2022-07-04T08:54:17;8.23;;;3.53;;
8050;SDS011;4068;42.158;24.732;2022-07-04T08:57:02;4.25;;;3.63;;
8050;SDS011;4068;42.158;24.732;2022-07-04T08:59:46;6.38;;;4.05;;
8050;SDS011;4068;42.158;24.732;2022-07-04T09:02:15;7.15;;;3.83;;
8050;SDS011;4068;42.158;24.732;2022-07-04T09:04:43;4.88;;;4.07;;
8050;SDS011;4068;42.158;24.732;2022-07-04T09:07:12;5.97;;;4.03;;
8050;SDS011;4068;42.158;24.732;2022-07-04T09:09:39;6.90;;;3.65;;
8050;SDS011;4068;42.158;24.732;2022-07-04T09:12:05;3.42;;;3.10;;
8050;SDS011;4068;42.158;24.732;2022-07-04T09:14:31;4.63;;;3.00;;
8050;SDS011;4068;42.158;24.732;2022-07-04T09:16:57;6.72;;;3.35;;
8050;SDS011;4068;42.158;24.732;2022-07-04T09:19:23;7.97;;;3.35;;
8050;SDS011;4068;42.158;24.732;2022-07-04T09:21:49;3.72;;;3.13;;
8050;SDS011;4068;42.158;24.732;2022-07-04T09:24:15;4.30;;;3.22;;
8050;SDS011;4068;42.158;24.732;2022-07-04T09:26:44;9.13;;;3.40;;
8050;SDS011;4068;42.158;24.732;2022-07-04T09:29:10;5.65;;;3.47;;
8050;SDS011;4068;42.158;24.732;2022-07-04T09:31:37;6.65;;;3.67;;
8050;SDS011;4068;42.158;24.732;2022-07-04T09:34:04;4.90;;;3.65;;
8050;SDS011;4068;42.158;24.732;2022-07-04T09:36:35;6.60;;;4.00;;
8050;SDS011;4068;42.158;24.732;2022-07-04T09:39:07;6.85;;;3.42;;
8050;SDS011;4068;42.158;24.732;2022-07-04T09:41:57;4.68;;;3.45;;
8050;SDS011;4068;42.158;24.732;2022-07-04T09:46:59;6.88;;;3.33;;
8050;SDS011;4068;42.158;24.732;2022-07-04T09:49:57;5.13;;;3.30;;
8050;SDS011;4068;42.158;24.732;2022-07-04T09:52:32;8.15;;;3.33;;
8050;SDS011;4068;42.158;24.732;2022-07-04T09:55:09;4.82;;;3.30;;
8050;SDS011;4068;42.158;24.732;2022-07-04T09:57:34;8.18;;;3.05;;
8050;SDS011;4068;42.158;24.732;2022-07-04T10:00:15;4.50;;;3.10;;
8050;SDS011;4068;42.158;24.732;2022-07-04T10:02:41;5.85;;;3.13;;
8050;SDS011;4068;42.158;24.732;2022-07-04T10:05:07;5.90;;;3.40;;
8050;SDS011;4068;42.158;24.732;2022-07-04T10:07:40;8.60;;;3.63;;
8050;SDS011;4068;42.158;24.732;2022-07-04T10:12:54;5.93;;;3.40;;
8050;SDS011;4068;42.158;24.732;2022-07-04T10:15:20;3.97;;;3.63;;
8050;SDS011;4068;42.158;24.732;2022-07-04T10:17:46;4.28;;;3.13;;
8050;SDS011;4068;42.158;24.732;2022-07-04T10:20:12;3.55;;;3.00;;
8050;SDS011;4068;42.158;24.732;2022-07-04T10:22:38;5.32;;;3.10;;
8050;SDS011;4068;42.158;24.732;2022-07-04T10:25:04;5.57;;;3.45;;
8050;SDS011;4068;42.158;24.732;2022-07-04T10:27:30;3.70;;;3.30;;
8050;SDS011;4068;42.158;24.732;2022-07-04T10:29:57;3.70;;;3.10;;
8050;SDS011;4068;42.158;24.732;2022-07-04T10:32:24;7.82;;;3.33;;
8050;SDS011;4068;42.158;24.732;2022-07-04T10:34:51;3.75;;;3.45;;
8050;SDS011;4068;42.158;24.732;2022-07-04T10:37:16;5.38;;;3.10;;
8050;SDS011;4068;42.158;24.732;2022-07-04T10:39:42;7.20;;;3.50;;
8050;SDS011;4068;42.158;24.732;2022-07-04T10:42:08;6.90;;;3.42;;
8050;SDS011;4068;42.158;24.732;2022-07-04T10:44:33;5.75;;;4.03;;
8050;SDS011;4068;42.158;24.732;2022-07-04T10:47:03;9.45;;;3.10;;
8050;SDS011;4068;42.158;24.732;2022-07-04T10:49:29;8.75;;;4.20;;
8050;SDS011;4068;42.158;24.732;2022-07-04T10:51:55;8.68;;;3.60;;
8050;SDS011;4068;42.158;24.732;2022-07-04T10:54:34;5.68;;;3.42;;
8050;SDS011;4068;42.158;24.732;2022-07-04T10:59:37;3.97;;;3.40;;
8050;SDS011;4068;42.158;24.732;2022-07-04T11:07:09;6.70;;;4.18;;
8050;SDS011;4068;42.158;24.732;2022-07-04T11:09:35;6.70;;;3.78;;
8050;SDS011;4068;42.158;24.732;2022-07-04T11:12:02;3.60;;;3.28;;
8050;SDS011;4068;42.158;24.732;2022-07-04T11:17:03;11.00;;;3.85;;
8050;SDS011;4068;42.158;24.732;2022-07-04T11:19:33;6.20;;;3.55;;
8050;SDS011;4068;42.158;24.732;2022-07-04T11:21:59;7.38;;;3.25;;
8050;SDS011;4068;42.158;24.732;2022-07-04T11:24:25;5.45;;;3.58;;
8050;SDS011;4068;42.158;24.732;2022-07-04T11:26:51;7.22;;;4.10;;
8050;SDS011;4068;42.158;24.732;2022-07-04T11:29:16;5.22;;;3.28;;
8050;SDS011;4068;42.158;24.732;2022-07-04T11:31:43;4.38;;;3.50;;
8050;SDS011;4068;42.158;24.732;2022-07-04T11:34:10;10.00;;;3.50;;
8050;SDS011;4068;42.158;24.732;2022-07-04T11:36:37;4.50;;;3.42;;
8050;SDS011;4068;42.158;24.732;2022-07-04T11:39:08;5.45;;;3.40;;
8050;SDS011;4068;42.158;24.732;2022-07-04T11:41:42;10.00;;;4.32;;
8050;SDS011;4068;42.158;24.732;2022-07-04T11:44:31;5.47;;;3.15;;
8050;SDS011;4068;42.158;24.732;2022-07-04T11:49:54;4.10;;;3.70;;
8050;SDS011;4068;42.158;24.732;2022-07-04T11:52:21;6.10;;;3.55;;
8050;SDS011;4068;42.158;24.732;2022-07-04T11:55:07;4.20;;;3.50;;
8050;SDS011;4068;42.158;24.732;2022-07-04T11:57:53;5.72;;;3.63;;
8050;SDS011;4068;42.158;24.732;2022-07-04T12:00:24;8.43;;;3.67;;
8050;SDS011;4068;42.158;24.732;2022-07-04T12:02:51;9.63;;;5.63;;
8050;SDS011;4068;42.158;24.732;2022-07-04T12:05:17;6.50;;;5.10;;
8050;SDS011;4068;42.158;24.732;2022-07-04T12:07:44;11.57;;;5.55;;
8050;SDS011;4068;42.158;24.732;2022-07-04T12:10:22;12.10;;;3.83;;
8050;SDS011;4068;42.158;24.732;2022-07-04T12:12:52;11.13;;;6.72;;
8050;SDS011;4068;42.158;24.732;2022-07-04T12:18:13;5.70;;;3.47;;
8050;SDS011;4068;42.158;24.732;2022-07-04T12:21:12;6.63;;;3.50;;
8050;SDS011;4068;42.158;24.732;2022-07-04T12:23:49;5.32;;;3.20;;
8050;SDS011;4068;42.158;24.732;2022-07-04T12:26:19;5.05;;;3.22;;
8050;SDS011;4068;42.158;24.732;2022-07-04T12:28:44;4.93;;;3.22;;
8050;SDS011;4068;42.158;24.732;2022-07-04T12:31:10;4.75;;;3.38;;
8050;SDS011;4068;42.158;24.732;2022-07-04T12:33:35;6.22;;;3.10;;
8050;SDS011;4068;42.158;24.732;2022-07-04T12:36:01;5.95;;;2.80;;
8050;SDS011;4068;42.158;24.732;2022-07-04T12:41:01;5.63;;;3.90;;
8050;SDS011;4068;42.158;24.732;2022-07-04T12:46:05;6.47;;;3.53;;
8050;SDS011;4068;42.158;24.732;2022-07-04T12:48:32;7.50;;;3.33;;
8050;SDS011;4068;42.158;24.732;2022-07-04T12:53:40;4.90;;;3.65;;
8050;SDS011;4068;42.158;24.732;2022-07-04T12:56:07;6.45;;;3.38;;
8050;SDS011;4068;42.158;24.732;2022-07-04T12:58:33;5.25;;;3.22;;
8050;SDS011;4068;42.158;24.732;2022-07-04T13:00:58;6.50;;;3.60;;
8050;SDS011;4068;42.158;24.732;2022-07-04T13:03:24;5.22;;;3.08;;
8050;SDS011;4068;42.158;24.732;2022-07-04T13:05:49;6.82;;;3.47;;
8050;SDS011;4068;42.158;24.732;2022-07-04T13:08:15;6.55;;;4.00;;
8050;SDS011;4068;42.158;24.732;2022-07-04T13:10:40;4.53;;;3.00;;
8050;SDS011;4068;42.158;24.732;2022-07-04T13:13:06;5.35;;;3.03;;
8050;SDS011;4068;42.158;24.732;2022-07-04T13:15:31;6.07;;;2.85;;
8050;SDS011;4068;42.158;24.732;2022-07-04T13:17:57;3.55;;;2.67;;
8050;SDS011;4068;42.158;24.732;2022-07-04T13:20:23;5.00;;;3.22;;
8050;SDS011;4068;42.158;24.732;2022-07-04T13:22:48;7.40;;;4.43;;
8050;SDS011;4068;42.158;24.732;2022-07-04T13:25:14;4.57;;;3.00;;
8050;SDS011;4068;42.158;24.732;2022-07-04T13:27:40;3.67;;;3.10;;
8050;SDS011;4068;42.158;24.732;2022-07-04T13:30:05;4.03;;;3.42;;
8050;SDS011;4068;42.158;24.732;2022-07-04T13:32:31;12.88;;;7.78;;
8050;SDS011;4068;42.158;24.732;2022-07-04T13:34:58;7.28;;;4.10;;
8050;SDS011;4068;42.158;24.732;2022-07-04T13:37:23;8.60;;;4.55;;
8050;SDS011;4068;42.158;24.732;2022-07-04T13:39:49;6.28;;;3.70;;
8050;SDS011;4068;42.158;24.732;2022-07-04T13:42:14;7.13;;;3.28;;
8050;SDS011;4068;42.158;24.732;2022-07-04T13:45:00;3.15;;;2.85;;
8050;SDS011;4068;42.158;24.732;2022-07-04T13:47:25;3.05;;;2.75;;
8050;SDS011;4068;42.158;24.732;2022-07-04T13:49:51;4.68;;;3.42;;
8050;SDS011;4068;42.158;24.732;2022-07-04T13:52:16;3.20;;;2.80;;
8050;SDS011;4068;42.158;24.732;2022-07-04T13:54:42;3.40;;;2.53;;
8050;SDS011;4068;42.158;24.732;2022-07-04T13:57:07;4.18;;;3.50;;
8050;SDS011;4068;42.158;24.732;2022-07-04T13:59:32;5.75;;;3.10;;
8050;SDS011;4068;42.158;24.732;2022-07-04T14:01:58;4.30;;;3.20;;
8050;SDS011;4068;42.158;24.732;2022-07-04T14:04:23;9.73;;;3.00;;
8050;SDS011;4068;42.158;24.732;2022-07-04T14:06:49;7.95;;;3.47;;
8050;SDS011;4068;42.158;24.732;2022-07-04T14:09:14;6.70;;;3.33;;
8050;SDS011;4068;42.158;24.732;2022-07-04T14:11:39;5.43;;;3.40;;
8050;SDS011;4068;42.158;24.732;2022-07-04T14:14:05;17.88;;;3.92;;
8050;SDS011;4068;42.158;24.732;2022-07-04T14:16:30;6.78;;;3.17;;
8050;SDS011;4068;42.158;24.732;2022-07-04T14:18:56;6.53;;;3.35;;
8050;SDS011;4068;42.158;24.732;2022-07-04T14:21:22;5.68;;;3.17;;
8050;SDS011;4068;42.158;24.732;2022-07-04T14:23:47;6.13;;;3.60;;
8050;SDS011;4068;42.158;24.732;2022-07-04T14:26:14;7.60;;;4.00;;
8050;SDS011;4068;42.158;24.732;2022-07-04T14:28:41;6.32;;;3.30;;
8050;SDS011;4068;42.158;24.732;2022-07-04T14:31:09;5.70;;;3.03;;
8050;SDS011;4068;42.158;24.732;2022-07-04T14:33:35;7.57;;;3.33;;
8050;SDS011;4068;42.158;24.732;2022-07-04T14:36:01;6.38;;;4.03;;
8050;SDS011;4068;42.158;24.732;2022-07-04T14:38:27;3.30;;;2.97;;
8050;SDS011;4068;42.158;24.732;2022-07-04T14:40:53;4.55;;;3.22;;
8050;SDS011;4068;42.158;24.732;2022-07-04T14:43:18;3.80;;;2.83;;
8050;SDS011;4068;42.158;24.732;2022-07-04T14:45:44;5.32;;;3.20;;
8050;SDS011;4068;42.158;24.732;2022-07-04T14:48:11;8.80;;;2.90;;
8050;SDS011;4068;42.158;24.732;2022-07-04T14:50:38;5.43;;;3.00;;
8050;SDS011;4068;42.158;24.732;2022-07-04T14:53:03;8.20;;;3.53;;
8050;SDS011;4068;42.158;24.732;2022-07-04T14:55:28;6.03;;;3.03;;
8050;SDS011;4068;42.158;24.732;2022-07-04T14:57:54;3.85;;;3.38;;
8050;SDS011;4068;42.158;24.732;2022-07-04T15:00:19;7.55;;;3.40;;
8050;SDS011;4068;42.158;24.732;2022-07-04T15:02:44;7.47;;;3.50;;
8050;SDS011;4068;42.158;24.732;2022-07-04T15:05:14;3.38;;;3.08;;
8050;SDS011;4068;42.158;24.732;2022-07-04T15:07:40;6.18;;;3.47;;
8050;SDS011;4068;42.158;24.732;2022-07-04T15:10:05;3.45;;;3.10;;
8050;SDS011;4068;42.158;24.732;2022-07-04T15:12:34;4.72;;;2.88;;
8050;SDS011;4068;42.158;24.732;2022-07-04T15:15:00;3.63;;;2.90;;
8050;SDS011;4068;42.158;24.732;2022-07-04T15:17:25;7.68;;;2.92;;
8050;SDS011;4068;42.158;24.732;2022-07-04T15:19:51;7.45;;;2.92;;
8050;SDS011;4068;42.158;24.732;2022-07-04T15:22:35;6.28;;;3.00;;
8050;SDS011;4068;42.158;24.732;2022-07-04T15:25:18;4.72;;;3.03;;
8050;SDS011;4068;42.158;24.732;2022-07-04T15:27:44;3.80;;;2.80;;
8050;SDS011;4068;42.158;24.732;2022-07-04T15:30:10;4.15;;;2.53;;